Time;durP1;ratioP1;P1;durP2;ratioP2;P2;SDS_P1;SDS_P2;PMS_P1;PMS_P2;Temp;Humidity;BMP_temperature;BMP_pressure;BME280_temperature;BME280_humidity;BME280_pressure;Samples;Min_cycle;Max_cycle;Signal;HPM_P1;HPM_P2
2022/12/04 00:01:54;;;;;;;55.67;32.00;;;;;;;2.23;100.00;101681.25;5215922;28;20465;-75
2022/12/04 00:04:25;;;;;;;55.90;31.88;;;;;;;2.21;100.00;101679.63;5213446;28;20037;-72
2022/12/04 00:06:56;;;;;;;55.25;32.58;;;;;;;2.25;100.00;101681.22;5216584;28;20026;-74
2022/12/04 00:09:28;;;;;;;56.05;31.40;;;;;;;2.23;100.00;101673.50;5214936;28;20095;-71
2022/12/04 00:11:59;;;;;;;53.97;31.25;;;;;;;2.27;100.00;101676.81;5214601;28;20438;-73
2022/12/04 00:14:30;;;;;;;55.42;31.33;;;;;;;2.26;100.00;101673.38;5216419;28;20040;-71
2022/12/04 00:17:02;;;;;;;50.42;31.33;;;;;;;2.16;100.00;101670.31;5216300;28;20392;-71
2022/12/04 00:19:33;;;;;;;51.47;29.85;;;;;;;2.18;100.00;101665.91;5212418;28;20129;-74
2022/12/04 00:22:04;;;;;;;53.83;31.25;;;;;;;2.12;100.00;101654.94;5213358;28;20041;-74
2022/12/04 00:24:36;;;;;;;58.63;32.42;;;;;;;2.22;100.00;101668.38;5215134;28;20486;-71
2022/12/04 00:27:07;;;;;;;54.47;31.65;;;;;;;2.25;100.00;101668.28;5215785;28;20057;-75
2022/12/04 00:29:38;;;;;;;56.15;31.00;;;;;;;2.29;100.00;101669.84;5214915;28;20052;-71
2022/12/04 00:32:09;;;;;;;53.00;30.15;;;;;;;2.28;100.00;101673.34;5214572;28;20021;-71
2022/12/04 00:34:41;;;;;;;56.13;31.83;;;;;;;2.23;100.00;101668.31;5215357;28;20352;-71
2022/12/04 00:37:12;;;;;;;53.55;30.63;;;;;;;2.27;100.00;101671.63;5215596;28;20072;-71
2022/12/04 00:39:43;;;;;;;51.72;30.10;;;;;;;2.24;100.00;101666.59;5213841;28;20045;-76
2022/12/04 00:42:14;;;;;;;55.75;31.45;;;;;;;2.25;100.00;101666.53;5214532;28;20117;-71
2022/12/04 00:44:46;;;;;;;55.60;30.88;;;;;;;2.29;100.00;101667.28;5215528;28;20033;-76
2022/12/04 00:47:17;;;;;;;53.38;32.03;;;;;;;2.24;100.00;101662.28;5214571;28;20041;-71
2022/12/04 00:49:49;;;;;;;54.67;32.67;;;;;;;2.25;100.00;101660.53;5213784;28;20125;-74
2022/12/04 00:52:21;;;;;;;50.67;30.58;;;;;;;2.27;100.00;101663.88;5214320;28;20025;-71
2022/12/04 00:54:52;;;;;;;54.13;31.23;;;;;;;2.31;100.00;101662.88;5215461;28;20050;-71
2022/12/04 00:57:23;;;;;;;55.95;31.58;;;;;;;2.30;100.00;101656.03;5214194;28;20032;-76
2022/12/04 00:59:54;;;;;;;55.33;32.22;;;;;;;2.29;100.00;101654.34;5215143;28;20018;-71
2022/12/04 01:02:26;;;;;;;54.25;31.20;;;;;;;2.27;100.00;101661.28;5213742;28;20072;-71
2022/12/04 01:05:00;;;;;;;52.40;30.50;;;;;;;2.28;100.00;101670.75;5213765;28;20034;-74
2022/12/04 01:07:31;;;;;;;55.47;32.28;;;;;;;2.24;100.00;101670.03;5213993;28;20033;-74
2022/12/04 01:10:04;;;;;;;54.80;31.63;;;;;;;2.25;100.00;101670.88;5214733;28;20092;-71
2022/12/04 01:12:36;;;;;;;57.38;31.88;;;;;;;2.07;100.00;101657.72;5214450;28;20037;-71
2022/12/04 01:15:07;;;;;;;52.95;31.63;;;;;;;2.22;100.00;101670.97;5213455;28;20013;-74
2022/12/04 01:17:39;;;;;;;52.83;30.38;;;;;;;2.19;100.00;101671.91;5213326;28;20402;-71
2022/12/04 01:20:12;;;;;;;56.95;33.17;;;;;;;2.24;100.00;101666.59;5212775;28;20061;-74
2022/12/04 01:22:43;;;;;;;50.95;30.10;;;;;;;2.25;100.00;101673.47;5214495;28;20022;-72
2022/12/04 01:25:14;;;;;;;52.70;31.52;;;;;;;2.24;100.00;101680.38;5214269;28;20018;-72
2022/12/04 01:27:45;;;;;;;51.70;30.73;;;;;;;2.25;100.00;101678.63;5211979;28;20037;-72
2022/12/04 01:30:17;;;;;;;51.45;30.30;;;;;;;2.24;100.00;101671.78;5214242;28;20029;-74
2022/12/04 01:32:48;;;;;;;54.78;31.35;;;;;;;2.25;100.00;101678.63;5215517;28;20045;-73
2022/12/04 01:35:19;;;;;;;50.75;31.95;;;;;;;2.26;100.00;101681.13;5214853;28;20022;-72
2022/12/04 01:37:51;;;;;;;53.75;31.65;;;;;;;2.27;100.00;101679.41;5213522;28;20039;-72
2022/12/04 01:40:22;;;;;;;52.67;32.08;;;;;;;2.23;100.00;101675.25;5214556;28;20034;-71
2022/12/04 01:42:53;;;;;;;51.05;32.50;;;;;;;2.21;100.00;101682.22;5214664;28;20044;-71
2022/12/04 01:45:40;;;;;;;50.92;31.90;;;;;;;2.37;100.00;101673.00;5214493;28;20461;-76
2022/12/04 01:48:32;;;;;;;52.50;29.92;;;;;;;2.29;100.00;101667.28;5213653;28;20414;-72
2022/12/04 01:51:13;;;;;;;53.60;31.10;;;;;;;2.31;100.00;101666.31;5214392;28;20022;-74
2022/12/04 01:53:53;;;;;;;49.88;31.58;;;;;;;2.33;100.00;101661.09;5215128;28;20057;-75
2022/12/04 01:56:36;;;;;;;55.42;33.08;;;;;;;2.33;100.00;101664.50;5214133;28;20471;-75
2022/12/04 01:59:11;;;;;;;50.72;32.25;;;;;;;2.18;100.00;101655.56;5214239;28;20084;-73
2022/12/04 02:01:58;;;;;;;51.55;31.27;;;;;;;2.22;100.00;101643.38;5213292;28;20567;-72
2022/12/04 02:04:30;;;;;;;52.35;32.20;;;;;;;2.21;100.00;101656.38;5214527;28;20112;-76
2022/12/04 02:07:02;;;;;;;53.05;31.58;;;;;;;2.15;100.00;101655.69;5214772;28;20029;-71
2022/12/04 02:09:35;;;;;;;52.45;32.80;;;;;;;2.21;100.00;101656.38;5214407;28;20022;-73
2022/12/04 02:12:31;;;;;;;51.25;31.90;;;;;;;2.31;100.00;101655.97;5213449;28;20442;-72
2022/12/04 02:15:27;;;;;;;51.83;32.13;;;;;;;2.35;100.00;101656.69;5213477;28;20395;-71
2022/12/04 02:18:08;;;;;;;51.55;31.42;;;;;;;2.30;100.00;101661.19;5214212;28;20080;-75
2022/12/04 02:20:51;;;;;;;49.80;30.60;;;;;;;2.33;100.00;101655.91;5212259;28;20018;-71
2022/12/04 02:23:43;;;;;;;51.40;31.42;;;;;;;2.44;100.00;101649.44;5214157;28;20065;-73
2022/12/04 02:26:43;;;;;;;50.67;32.13;;;;;;;2.44;100.00;101649.44;5212222;28;20381;-76
2022/12/04 02:29:48;;;;;;;49.15;29.50;;;;;;;2.39;100.00;101647.94;5214017;28;20038;-72
2022/12/04 02:32:19;;;;;;;51.28;30.65;;;;;;;2.23;100.00;101654.56;5213061;28;20037;-72
2022/12/04 02:34:57;;;;;;;50.10;30.35;;;;;;;2.32;100.00;101659.41;5213240;28;20038;-71
2022/12/04 02:37:34;;;;;;;48.47;31.85;;;;;;;2.22;100.00;101645.13;5214633;28;20084;-74
2022/12/04 02:40:11;;;;;;;48.83;31.67;;;;;;;2.24;100.00;101658.84;5213168;28;20026;-71
2022/12/04 02:42:48;;;;;;;53.33;33.17;;;;;;;2.21;100.00;101651.19;5212206;28;20034;-71
2022/12/04 02:45:25;;;;;;;50.13;31.65;;;;;;;2.22;100.00;101653.72;5213478;28;20022;-71
2022/12/04 02:48:01;;;;;;;47.83;29.13;;;;;;;2.21;100.00;101659.81;5213289;28;20059;-71
2022/12/04 02:50:36;;;;;;;54.08;31.67;;;;;;;2.16;100.00;101652.22;5214474;28;20030;-72
2022/12/04 02:53:17;;;;;;;49.97;31.75;;;;;;;2.21;100.00;101657.22;5211637;28;20125;-72
2022/12/04 02:55:56;;;;;;;53.67;32.03;;;;;;;2.22;100.00;101647.72;5213253;28;20654;-71
2022/12/04 02:58:40;;;;;;;50.97;31.95;;;;;;;2.29;100.00;101637.09;5214313;28;20509;-74
2022/12/04 03:01:19;;;;;;;50.78;32.30;;;;;;;2.18;100.00;101626.28;5212703;28;20418;-74
2022/12/04 03:03:59;;;;;;;49.17;31.70;;;;;;;2.25;100.00;101635.50;5215390;28;20035;-71
2022/12/04 03:06:34;;;;;;;52.83;32.90;;;;;;;2.22;100.00;101643.38;5211682;28;20434;-72
2022/12/04 03:09:16;;;;;;;49.42;31.20;;;;;;;2.28;100.00;101642.31;5216481;28;20037;-75
2022/12/04 03:11:54;;;;;;;54.72;32.72;;;;;;;2.19;100.00;101636.56;5216845;28;20029;-72
2022/12/04 03:14:36;;;;;;;48.97;33.08;;;;;;;2.28;100.00;101643.16;5214946;28;20022;-72
2022/12/04 03:17:17;;;;;;;50.60;33.33;;;;;;;2.27;100.00;101635.44;5216058;28;20681;-71
2022/12/04 03:19:56;;;;;;;51.15;31.92;;;;;;;2.23;100.00;101633.88;5216365;28;20029;-73
2022/12/04 03:22:30;;;;;;;53.70;33.90;;;;;;;2.18;100.00;101645.22;5214694;28;20133;-71
2022/12/04 03:25:03;;;;;;;57.83;34.03;;;;;;;2.14;100.00;101648.00;5217104;28;20390;-71
2022/12/04 03:27:47;;;;;;;53.20;32.10;;;;;;;2.23;100.00;101639.88;5218534;28;20022;-71
2022/12/04 03:30:21;;;;;;;48.35;32.03;;;;;;;2.12;100.00;101637.72;5215552;28;20064;-71
2022/12/04 03:33:14;;;;;;;54.42;32.55;;;;;;;2.29;100.00;101639.66;5215451;28;20069;-72
2022/12/04 03:35:54;;;;;;;51.22;32.60;;;;;;;2.18;100.00;101639.22;5216903;28;20018;-71
2022/12/04 03:38:51;;;;;;;56.83;33.10;;;;;;;2.22;100.00;101635.63;5217321;28;20036;-72
2022/12/04 03:41:51;;;;;;;51.22;33.05;;;;;;;2.26;100.00;101633.78;5214935;28;20490;-71
2022/12/04 03:44:37;;;;;;;52.72;33.10;;;;;;;2.26;100.00;101634.59;5216965;28;20406;-71
2022/12/04 03:47:13;;;;;;;54.22;33.22;;;;;;;2.18;100.00;101637.47;5215942;28;20384;-71
2022/12/04 03:50:01;;;;;;;55.55;33.88;;;;;;;2.29;100.00;101628.50;5216347;28;20087;-75
2022/12/04 03:52:41;;;;;;;56.25;33.55;;;;;;;2.22;100.00;101624.44;5216736;28;20092;-71
2022/12/04 03:55:24;;;;;;;54.67;34.55;;;;;;;2.27;100.00;101619.94;5216852;28;20026;-71
2022/12/04 03:58:05;;;;;;;50.00;31.85;;;;;;;2.24;100.00;101628.66;5216527;28;20109;-73
2022/12/04 04:00:40;;;;;;;55.88;33.13;;;;;;;2.21;100.00;101626.19;5216014;28;20040;-71
2022/12/04 04:03:21;;;;;;;53.33;34.63;;;;;;;2.19;100.00;101622.81;5212907;28;20037;-71
2022/12/04 04:05:58;;;;;;;55.97;34.55;;;;;;;2.18;100.00;101623.72;5215753;28;20041;-71
2022/12/04 04:08:34;;;;;;;52.63;33.28;;;;;;;2.10;100.00;101621.41;5217582;28;20083;-75
2022/12/04 04:11:15;;;;;;;55.10;34.75;;;;;;;2.21;100.00;101621.03;5214679;28;20686;-71
2022/12/04 04:25:40;;;;;;;56.90;35.03;;;;;;;2.18;100.00;101632.31;5215591;28;20042;-73
2022/12/04 04:28:27;;;;;;;53.70;34.25;;;;;;;2.31;100.00;101624.09;5215963;28;20057;-73
2022/12/04 04:31:05;;;;;;;55.97;33.38;;;;;;;2.26;100.00;101623.44;5216123;28;20475;-72
2022/12/04 04:34:09;;;;;;;57.28;35.75;;;;;;;2.39;100.00;101619.50;5214489;28;20034;-71
2022/12/04 04:37:12;;;;;;;51.08;32.38;;;;;;;2.32;100.00;101612.88;5214785;28;20491;-71
2022/12/04 04:40:00;;;;;;;54.30;33.43;;;;;;;2.36;100.00;101620.44;5216511;28;20743;-74
2022/12/04 04:42:48;;;;;;;53.20;33.60;;;;;;;2.14;100.00;101615.22;5215700;28;20034;-71
2022/12/04 04:45:35;;;;;;;52.45;33.08;;;;;;;2.30;100.00;101625.81;5215431;28;20045;-71
2022/12/04 04:48:15;;;;;;;51.17;32.67;;;;;;;2.25;100.00;101622.59;5207752;22;20400;-69
2022/12/04 04:50:47;;;;;;;56.13;34.30;;;;;;;2.12;100.00;101621.34;5192149;28;20093;-69
2022/12/04 04:53:25;;;;;;;51.90;33.93;;;;;;;2.21;100.00;101623.59;5194192;28;20121;-69
2022/12/04 04:55:57;;;;;;;52.90;34.25;;;;;;;2.21;100.00;101623.59;5192999;28;20022;-69
2022/12/04 04:58:29;;;;;;;57.28;34.38;;;;;;;2.14;100.00;101627.31;5193654;28;20034;-69
2022/12/04 05:01:03;;;;;;;53.55;34.38;;;;;;;2.18;100.00;101626.28;5193558;28;20451;-69
2022/12/04 05:03:35;;;;;;;54.92;33.63;;;;;;;2.11;100.00;101627.41;5194652;28;20057;-69
2022/12/04 05:06:07;;;;;;;53.30;34.47;;;;;;;2.15;100.00;101635.00;5192988;28;20068;-69
2022/12/04 05:08:38;;;;;;;54.95;34.15;;;;;;;2.19;100.00;101641.75;5194616;28;20314;-69
2022/12/04 05:11:12;;;;;;;54.97;34.95;;;;;;;2.22;100.00;101637.38;5194336;28;20065;-69
2022/12/04 05:13:43;;;;;;;53.25;36.33;;;;;;;2.22;100.00;101632.19;5194494;28;20495;-69
2022/12/04 05:16:15;;;;;;;52.45;33.97;;;;;;;2.16;100.00;101623.78;5193839;28;20117;-69
2022/12/04 05:21:37;;;;;;;54.30;34.40;;;;;;;2.23;100.00;101633.88;5194405;28;20089;-69
2022/12/04 05:24:08;;;;;;;54.80;35.03;;;;;;;2.14;100.00;101633.31;5193703;28;20054;-69
2022/12/04 05:26:40;;;;;;;51.22;32.97;;;;;;;2.22;100.00;101637.38;5193669;28;20113;-69
2022/12/04 05:29:11;;;;;;;59.65;35.92;;;;;;;2.19;100.00;101626.22;5194521;28;20373;-69
2022/12/04 05:31:42;;;;;;;53.60;34.20;;;;;;;2.22;100.00;101632.19;5193056;28;20499;-69
2022/12/04 05:34:13;;;;;;;53.28;34.30;;;;;;;2.15;100.00;101621.25;5192897;28;20463;-69
2022/12/04 05:36:45;;;;;;;53.67;32.53;;;;;;;2.20;100.00;101629.69;5194392;28;20029;-69
2022/12/04 05:39:16;;;;;;;53.75;35.00;;;;;;;2.15;100.00;101627.25;5194213;28;20561;-69
2022/12/04 05:41:47;;;;;;;52.10;32.85;;;;;;;2.20;100.00;101624.50;5193507;28;20113;-69
2022/12/04 05:44:19;;;;;;;51.22;33.88;;;;;;;2.19;100.00;101625.38;5193334;28;20030;-69
2022/12/04 05:46:50;;;;;;;54.08;33.63;;;;;;;2.24;100.00;101622.66;5194215;28;20030;-69
2022/12/04 05:49:21;;;;;;;54.20;34.13;;;;;;;2.25;100.00;101620.00;5193542;28;20112;-69
2022/12/04 05:51:53;;;;;;;54.20;34.30;;;;;;;2.25;100.00;101614.00;5193431;28;20317;-69
2022/12/04 05:54:24;;;;;;;53.60;32.90;;;;;;;2.29;100.00;101615.56;5193992;28;20030;-69
2022/12/04 05:56:55;;;;;;;55.25;33.90;;;;;;;2.24;100.00;101612.31;5193760;28;20398;-69
2022/12/04 05:59:27;;;;;;;54.65;32.88;;;;;;;2.29;100.00;101623.31;5193917;28;20042;-69
2022/12/04 06:01:58;;;;;;;53.97;33.83;;;;;;;2.30;100.00;101617.22;5193271;28;20033;-69
2022/12/04 06:04:29;;;;;;;55.20;34.40;;;;;;;2.29;100.00;101610.38;5193891;28;20069;-69
2022/12/04 06:07:00;;;;;;;56.60;35.30;;;;;;;2.32;100.00;101605.94;5191878;28;20076;-69
2022/12/04 06:09:32;;;;;;;53.58;33.38;;;;;;;2.34;100.00;101604.13;5193885;28;20444;-69
2022/12/04 06:12:04;;;;;;;52.67;33.70;;;;;;;2.36;100.00;101599.75;5193312;28;20443;-69
2022/12/04 06:14:35;;;;;;;53.38;33.13;;;;;;;2.31;100.00;101595.63;5193982;28;20030;-69
2022/12/04 06:17:06;;;;;;;53.85;34.40;;;;;;;2.31;100.00;101599.09;5192771;28;20397;-69
2022/12/04 06:19:38;;;;;;;53.35;32.97;;;;;;;2.32;100.00;101607.69;5193858;28;20042;-69
2022/12/04 06:22:09;;;;;;;58.15;34.25;;;;;;;2.31;100.00;101605.97;5193357;28;20027;-69
2022/12/04 06:24:40;;;;;;;55.95;35.45;;;;;;;2.32;100.00;101602.53;5192874;28;20030;-69
2022/12/04 06:27:12;;;;;;;52.33;33.47;;;;;;;2.27;100.00;101615.59;5193687;28;20502;-69
2022/12/04 06:29:43;;;;;;;55.35;35.17;;;;;;;2.30;100.00;101609.47;5193868;28;20618;-69
2022/12/04 06:32:14;;;;;;;50.47;33.42;;;;;;;2.30;100.00;101614.66;5193172;28;20026;-69
2022/12/04 06:34:50;;;;;;;55.53;35.45;;;;;;;2.35;100.00;101608.41;5192279;28;20023;-69
2022/12/04 06:37:23;;;;;;;53.60;33.97;;;;;;;2.35;100.00;101616.19;5193489;28;20089;-69
2022/12/04 06:39:55;;;;;;;52.70;34.75;;;;;;;2.33;100.00;101619.72;5197692;28;20112;-69
2022/12/04 06:42:26;;;;;;;52.60;32.97;;;;;;;2.36;100.00;101620.44;5195489;28;20134;-69
2022/12/04 06:44:57;;;;;;;50.65;32.30;;;;;;;2.31;100.00;101621.50;5197011;28;20034;-69
2022/12/04 06:47:28;;;;;;;53.08;33.72;;;;;;;2.32;100.00;101613.69;5196547;28;20050;-69
2022/12/04 06:50:00;;;;;;;52.40;34.10;;;;;;;2.31;100.00;101613.75;5197481;28;20034;-69
2022/12/04 06:52:33;;;;;;;52.78;33.47;;;;;;;2.33;100.00;101606.78;5196246;28;20034;-69
2022/12/04 06:55:04;;;;;;;53.10;33.80;;;;;;;2.36;100.00;101619.59;5197104;28;20022;-69
2022/12/04 06:57:36;;;;;;;57.40;34.58;;;;;;;2.37;100.00;101624.69;5197038;28;20093;-69
2022/12/04 07:00:07;;;;;;;52.67;34.45;;;;;;;2.31;100.00;101626.66;5197320;28;20077;-69
2022/12/04 07:02:39;;;;;;;52.47;33.80;;;;;;;2.33;100.00;101624.88;5196754;28;20041;-69
2022/12/04 07:05:10;;;;;;;54.55;33.53;;;;;;;2.36;100.00;101635.94;5197566;28;20579;-69
2022/12/04 07:07:41;;;;;;;53.80;33.10;;;;;;;2.40;100.00;101628.94;5197053;28;20030;-69
2022/12/04 07:10:13;;;;;;;54.40;34.25;;;;;;;2.37;100.00;101629.03;5195261;28;20053;-69
2022/12/04 07:12:44;;;;;;;50.30;32.25;;;;;;;2.37;100.00;101629.88;5197172;28;20077;-69
2022/12/04 07:15:15;;;;;;;54.67;33.03;;;;;;;2.40;100.00;101636.69;5196662;28;20026;-69
2022/12/04 07:17:47;;;;;;;49.58;32.95;;;;;;;2.40;100.00;101634.09;5196781;28;20347;-69
2022/12/04 07:20:18;;;;;;;53.10;33.80;;;;;;;2.36;100.00;101637.69;5195507;28;20438;-69
2022/12/04 07:22:49;;;;;;;55.50;34.70;;;;;;;2.40;100.00;101641.84;5194736;28;20034;-69
2022/12/04 07:25:21;;;;;;;51.40;32.28;;;;;;;2.37;100.00;101641.97;5197081;28;20023;-69
2022/12/04 07:27:52;;;;;;;50.88;31.30;;;;;;;2.37;100.00;101645.38;5195140;28;20117;-69
2022/12/04 07:30:23;;;;;;;48.85;31.20;;;;;;;2.39;100.00;101651.34;5196166;28;20454;-69
2022/12/04 07:32:55;;;;;;;49.85;31.95;;;;;;;2.36;100.00;101646.28;5196097;28;20379;-69
2022/12/04 07:35:26;;;;;;;54.85;33.95;;;;;;;2.35;100.00;101649.78;5196292;28;20042;-69
2022/12/04 07:37:57;;;;;;;48.25;32.30;;;;;;;2.35;100.00;101644.63;5194985;28;20404;-69
2022/12/04 07:40:29;;;;;;;51.63;30.55;;;;;;;2.37;100.00;101644.56;5196468;28;20188;-69
2022/12/04 07:43:00;;;;;;;47.47;31.25;;;;;;;2.35;100.00;101651.50;5196513;28;20096;-69
2022/12/04 07:45:31;;;;;;;47.33;30.30;;;;;;;2.37;100.00;101647.13;5195253;28;20042;-69
2022/12/04 07:48:03;;;;;;;47.70;29.95;;;;;;;2.37;100.00;101652.31;5194380;28;20042;-69
2022/12/04 07:50:34;;;;;;;49.10;31.52;;;;;;;2.34;100.00;101645.50;5196087;28;20034;-69
2022/12/04 07:53:05;;;;;;;42.75;30.08;;;;;;;2.34;100.00;101655.00;5194735;28;20708;-69
2022/12/04 07:55:36;;;;;;;48.78;31.23;;;;;;;2.35;100.00;101652.38;5194948;28;20026;-69
2022/12/04 07:58:08;;;;;;;47.60;29.80;;;;;;;2.39;100.00;101650.53;5195500;28;20038;-69
2022/12/04 08:00:39;;;;;;;49.65;31.10;;;;;;;2.40;100.00;101654.78;5194844;28;20026;-69
2022/12/04 08:03:10;;;;;;;43.63;28.33;;;;;;;2.39;100.00;101653.09;5194938;28;20557;-69
2022/12/04 08:05:41;;;;;;;45.38;30.55;;;;;;;2.36;100.00;101658.38;5193735;28;20464;-69
2022/12/04 08:08:13;;;;;;;44.47;29.77;;;;;;;2.36;100.00;101661.81;5194568;28;20491;-69
2022/12/04 08:10:44;;;;;;;44.97;30.35;;;;;;;2.35;100.00;101667.91;5195661;28;20502;-68
2022/12/04 08:13:15;;;;;;;44.05;29.25;;;;;;;2.41;100.00;101661.63;5192010;28;20105;-69
2022/12/04 08:15:46;;;;;;;44.90;29.40;;;;;;;2.40;100.00;101668.56;5193891;28;20073;-69
2022/12/04 08:18:18;;;;;;;46.00;30.02;;;;;;;2.28;100.00;101653.50;5195319;28;20032;-69
2022/12/04 08:20:49;;;;;;;44.78;29.52;;;;;;;2.43;100.00;101670.19;5193281;28;20022;-69
2022/12/04 08:23:20;;;;;;;43.28;28.42;;;;;;;2.35;100.00;101675.66;5189916;28;20076;-68
2022/12/04 08:25:52;;;;;;;45.50;27.92;;;;;;;2.42;100.00;101676.25;5194108;28;20033;-69
2022/12/04 08:28:23;;;;;;;43.80;27.83;;;;;;;2.41;100.00;101674.56;5195430;28;20105;-68
2022/12/04 08:30:54;;;;;;;43.13;28.48;;;;;;;2.41;100.00;101674.56;5194602;28;20018;-68
2022/12/04 08:33:25;;;;;;;41.25;27.75;;;;;;;2.43;100.00;101676.19;5193596;28;20057;-69
2022/12/04 08:35:57;;;;;;;43.65;28.13;;;;;;;2.49;100.00;101676.84;5194017;28;20022;-69
2022/12/04 08:38:28;;;;;;;38.67;26.63;;;;;;;2.35;100.00;101654.97;5194635;28;20058;-69
2022/12/04 08:41:05;;;;;;;39.25;27.45;;;;;;;2.53;100.00;101668.09;5194509;28;20372;-69
2022/12/04 08:43:36;;;;;;;40.55;27.63;;;;;;;2.49;100.00;101669.09;5195191;28;20034;-69
2022/12/04 08:46:10;;;;;;;38.88;26.95;;;;;;;2.50;100.00;101666.47;5193743;28;20037;-69
2022/12/04 08:48:42;;;;;;;37.58;25.63;;;;;;;2.49;100.00;101659.59;5193717;28;20057;-69
2022/12/04 08:51:16;;;;;;;39.38;26.65;;;;;;;2.58;100.00;101661.84;5194126;28;20233;-69
2022/12/04 08:53:51;;;;;;;38.33;25.48;;;;;;;2.59;100.00;101665.28;5194286;28;20037;-69
2022/12/04 08:56:24;;;;;;;36.80;24.75;;;;;;;2.60;100.00;101657.44;5193731;28;20505;-70
2022/12/04 08:58:56;;;;;;;35.03;24.08;;;;;;;2.62;100.00;101662.56;5192790;28;20080;-69
2022/12/04 09:01:28;;;;;;;38.73;24.80;;;;;;;2.57;100.00;101654.97;5193368;28;20038;-70
2022/12/04 09:03:59;;;;;;;34.80;24.30;;;;;;;2.58;100.00;101656.69;5194535;28;20025;-70
2022/12/04 09:06:31;;;;;;;35.95;24.98;;;;;;;2.63;100.00;101652.16;5187192;28;20104;-70
2022/12/04 09:09:02;;;;;;;36.05;25.95;;;;;;;2.63;100.00;101659.91;5189107;28;20088;-70
2022/12/04 09:11:33;;;;;;;32.08;23.17;;;;;;;2.63;100.00;101653.91;5187026;28;20038;-70
2022/12/04 09:14:05;;;;;;;36.15;24.52;;;;;;;2.70;100.00;101657.09;5188563;28;20037;-70
2022/12/04 09:16:37;;;;;;;32.83;24.38;;;;;;;2.77;100.00;101664.56;5186304;28;20113;-70
2022/12/04 09:19:08;;;;;;;31.58;23.35;;;;;;;2.74;100.00;101661.25;5192430;28;20427;-70
2022/12/04 09:21:39;;;;;;;35.13;22.98;;;;;;;2.76;100.00;101662.84;5191033;28;20484;-70
2022/12/04 09:24:11;;;;;;;33.35;23.10;;;;;;;2.79;100.00;101669.66;5191173;28;20026;-69
2022/12/04 09:26:42;;;;;;;32.03;21.88;;;;;;;2.80;100.00;101677.34;5191705;28;20042;-70
2022/12/04 09:29:13;;;;;;;32.28;23.70;;;;;;;2.85;100.00;101678.03;5190666;28;20404;-70
2022/12/04 09:31:44;;;;;;;36.25;24.42;;;;;;;2.86;100.00;101671.13;5192237;28;20033;-70
2022/12/04 09:34:16;;;;;;;33.40;23.40;;;;;;;2.84;100.00;101672.91;5191956;28;20538;-70
2022/12/04 09:36:47;;;;;;;31.15;21.40;;;;;;;2.84;100.00;101667.72;5190145;28;20456;-70
2022/12/04 09:39:18;;;;;;;32.92;22.50;;;;;;;2.84;100.00;101673.78;5191998;28;20049;-70
2022/12/04 09:41:52;;;;;;;31.95;22.25;;;;;;;2.92;100.00;101676.06;5191192;28;20092;-70
2022/12/04 09:44:32;;;;;;;34.17;23.40;;;;;;;2.93;100.00;101663.06;5191376;28;20038;-70
2022/12/04 09:47:16;;;;;;;33.08;22.20;;;;;;;2.90;100.00;101658.00;5191276;28;20038;-70
2022/12/04 09:49:52;;;;;;;31.58;21.45;;;;;;;2.91;100.00;101669.19;5191690;28;20056;-70
2022/12/04 09:52:42;;;;;;;29.67;22.35;;;;;;;2.94;100.00;101669.06;5190675;28;20030;-69
2022/12/04 09:55:22;;;;;;;30.90;22.20;;;;;;;2.99;100.00;101672.31;5189075;28;20506;-70
2022/12/04 09:57:56;;;;;;;31.30;21.15;;;;;;;2.91;100.00;101680.38;5187773;28;20034;-70
2022/12/04 10:00:30;;;;;;;27.83;19.42;;;;;;;2.82;100.00;101678.16;5187788;28;20034;-70
2022/12/04 10:03:05;;;;;;;28.60;19.52;;;;;;;2.84;100.00;101683.25;5191050;28;20030;-70
2022/12/04 10:06:15;;;;;;;28.48;18.98;;;;;;;2.94;100.00;101682.00;5182195;28;20419;-70
2022/12/04 10:08:55;;;;;;;26.23;19.67;;;;;;;2.76;100.00;101685.31;5190382;28;20033;-70
2022/12/04 10:12:06;;;;;;;26.63;18.27;;;;;;;2.87;100.00;101672.78;5192221;28;20033;-70
2022/12/04 10:15:04;;;;;;;28.05;19.33;;;;;;;2.92;100.00;101679.50;5195999;28;20034;-70
2022/12/04 10:18:03;;;;;;;26.80;18.58;;;;;;;2.89;100.00;101668.41;5195285;28;20093;-70
2022/12/04 10:21:04;;;;;;;28.58;18.80;;;;;;;2.89;100.00;101663.25;5192614;28;20044;-71
2022/12/04 10:23:48;;;;;;;29.50;19.10;;;;;;;2.81;100.00;101663.53;5194342;28;20394;-69
2022/12/04 10:26:25;;;;;;;26.58;18.13;;;;;;;2.77;100.00;101664.56;5195096;28;20033;-69
2022/12/04 10:29:07;;;;;;;26.58;17.40;;;;;;;2.76;100.00;101660.28;5194134;28;20065;-69
2022/12/04 10:31:39;;;;;;;27.83;18.42;;;;;;;2.67;100.00;101671.00;5195324;28;20133;-68
2022/12/04 10:34:24;;;;;;;27.05;18.83;;;;;;;2.78;100.00;101668.84;5195507;28;20033;-69
2022/12/04 10:37:05;;;;;;;27.85;18.48;;;;;;;2.78;100.00;101668.84;5193516;28;20096;-69
2022/12/04 10:39:59;;;;;;;27.60;18.50;;;;;;;2.78;100.00;101668.00;5195328;28;20085;-68
2022/12/04 10:42:45;;;;;;;27.13;18.40;;;;;;;2.80;100.00;101676.53;5195395;28;20421;-69
2022/12/04 10:45:23;;;;;;;25.67;18.10;;;;;;;2.87;100.00;101678.81;5192465;28;20026;-69
2022/12/04 10:47:54;;;;;;;26.48;19.27;;;;;;;2.77;100.00;101679.25;5192596;28;20141;-69
2022/12/04 10:50:26;;;;;;;29.08;19.40;;;;;;;2.75;100.00;101673.28;5192112;28;20124;-69
2022/12/04 10:52:57;;;;;;;27.80;19.15;;;;;;;2.67;100.00;101668.41;5192199;28;20081;-69
2022/12/04 10:55:32;;;;;;;29.63;19.70;;;;;;;2.63;100.00;101678.03;5194102;28;20503;-68
2022/12/04 10:58:14;;;;;;;25.95;18.10;;;;;;;2.82;100.00;101672.97;5194037;28;20088;-69
2022/12/04 11:01:01;;;;;;;28.25;19.20;;;;;;;2.86;100.00;101665.94;5193571;28;20030;-68
2022/12/04 11:03:33;;;;;;;29.00;19.35;;;;;;;2.72;100.00;101653.53;5193771;28;20041;-68
2022/12/04 11:06:08;;;;;;;27.20;19.33;;;;;;;2.83;100.00;101650.53;5191122;28;20105;-68
2022/12/04 11:08:48;;;;;;;26.70;18.40;;;;;;;2.79;100.00;101662.75;5191274;28;20062;-68
2022/12/04 11:11:29;;;;;;;26.27;19.50;;;;;;;2.67;100.00;101645.97;5195295;28;20034;-69
2022/12/04 11:14:12;;;;;;;25.80;18.08;;;;;;;2.70;100.00;101647.59;5194748;28;20066;-69
2022/12/04 11:16:48;;;;;;;24.73;18.58;;;;;;;2.67;100.00;101642.53;5194438;28;20110;-69
2022/12/04 11:19:25;;;;;;;25.17;18.40;;;;;;;2.71;100.00;101643.25;5194308;28;20033;-69
2022/12/04 11:22:04;;;;;;;29.48;19.45;;;;;;;2.67;100.00;101640.78;5191492;28;20030;-69
2022/12/04 11:24:37;;;;;;;25.65;18.17;;;;;;;2.60;100.00;101641.91;5194285;28;20030;-68
2022/12/04 11:27:21;;;;;;;27.13;19.13;;;;;;;2.67;100.00;101640.78;5195187;28;20022;-69
2022/12/04 11:29:53;;;;;;;26.65;19.30;;;;;;;2.63;100.00;101630.63;5193987;28;20089;-69
2022/12/04 11:32:32;;;;;;;25.90;18.48;;;;;;;2.55;100.00;101625.75;5193880;28;20094;-69
2022/12/04 11:35:16;;;;;;;27.67;19.30;;;;;;;2.73;100.00;101628.50;5195134;28;20056;-68
2022/12/04 11:38:04;;;;;;;24.50;17.73;;;;;;;2.76;100.00;101629.22;5192601;28;20038;-69
2022/12/04 11:40:35;;;;;;;26.63;18.50;;;;;;;2.56;100.00;101626.59;5194065;28;20041;-68
2022/12/04 11:43:16;;;;;;;25.02;18.77;;;;;;;2.71;100.00;101633.75;5192883;28;20030;-69
2022/12/04 11:45:54;;;;;;;26.95;19.27;;;;;;;2.70;100.00;101628.66;5191721;28;20049;-69
2022/12/04 11:48:28;;;;;;;28.60;19.25;;;;;;;2.71;100.00;101627.72;5192095;28;20046;-69
2022/12/04 11:51:18;;;;;;;26.63;19.88;;;;;;;2.91;100.00;101633.78;5191799;28;20392;-68
2022/12/04 11:54:02;;;;;;;25.40;18.80;;;;;;;2.86;100.00;101638.31;5194835;28;21215;-69
2022/12/04 11:57:00;;;;;;;26.88;18.95;;;;;;;2.94;100.00;101627.66;5191699;28;20024;-69
2022/12/04 11:59:59;;;;;;;23.67;17.77;;;;;;;2.85;100.00;101633.22;5191330;28;20049;-68
2022/12/04 12:02:58;;;;;;;24.48;17.85;;;;;;;2.87;100.00;101636.56;5193685;28;20046;-69
2022/12/04 12:05:52;;;;;;;25.98;18.13;;;;;;;2.81;100.00;101629.06;5193607;28;20124;-69